createdAt,value
2023-05-04T00:00:47.654Z,11.70
2023-05-04T00:03:16.360Z,11.35
2023-05-04T00:05:43.843Z,11.52
2023-05-04T00:08:11.647Z,11.88
2023-05-04T00:10:39.302Z,11.98
2023-05-04T00:13:06.898Z,11.88
2023-05-04T00:15:34.392Z,12.73
2023-05-04T00:18:02.221Z,11.95
2023-05-04T00:20:29.614Z,12.20
2023-05-04T00:22:56.981Z,11.98
2023-05-04T00:25:24.632Z,11.75
2023-05-04T00:27:53.510Z,12.13
2023-05-04T00:30:20.926Z,11.25
2023-05-04T00:32:48.737Z,12.13
2023-05-04T00:35:16.363Z,11.10
2023-05-04T00:37:45.206Z,12.20
2023-05-04T00:40:13.046Z,10.88
2023-05-04T00:42:40.389Z,11.10
2023-05-04T00:45:08.154Z,10.77
2023-05-04T00:47:36.169Z,10.85
2023-05-04T00:50:04.788Z,11.30
2023-05-04T00:52:32.521Z,11.05
2023-05-04T00:55:01.464Z,10.48
2023-05-04T00:57:28.938Z,10.63
2023-05-04T00:59:56.582Z,10.40
2023-05-04T01:02:26.588Z,10.65
2023-05-04T01:04:53.979Z,11.07
2023-05-04T01:08:06.295Z,11.48
2023-05-04T01:10:54.369Z,10.18
2023-05-04T01:13:22.155Z,8.82
2023-05-04T01:15:49.810Z,10.60
2023-05-04T01:18:17.198Z,9.98
2023-05-04T01:20:44.602Z,9.60
2023-05-04T01:23:12.420Z,9.45
2023-05-04T01:25:50.868Z,10.52
2023-05-04T01:28:26.873Z,8.95
2023-05-04T01:30:56.453Z,9.13
2023-05-04T01:33:24.234Z,9.45
2023-05-04T01:35:51.727Z,9.13
2023-05-04T01:38:19.096Z,8.38
2023-05-04T01:40:46.780Z,7.90
2023-05-04T01:43:14.201Z,8.60
2023-05-04T01:45:41.865Z,8.05
2023-05-04T01:48:09.659Z,8.60
2023-05-04T01:50:37.111Z,8.57
2023-05-04T01:53:04.509Z,8.20
2023-05-04T01:55:33.040Z,8.90
2023-05-04T01:58:00.623Z,7.95
2023-05-04T02:00:28.227Z,7.93
2023-05-04T02:02:56.112Z,8.25
2023-05-04T02:05:23.704Z,8.27
2023-05-04T02:07:53.604Z,8.32
2023-05-04T02:10:21.616Z,8.63
2023-05-04T02:12:49.088Z,8.90
2023-05-04T02:15:16.484Z,9.70
2023-05-04T02:17:44.227Z,8.13
2023-05-04T02:20:13.055Z,10.23
2023-05-04T02:22:42.315Z,8.88
2023-05-04T02:25:10.053Z,9.85
2023-05-04T02:27:37.462Z,9.85
2023-05-04T02:30:05.701Z,8.50
2023-05-04T02:32:33.677Z,8.23
2023-05-04T02:35:01.083Z,8.75
2023-05-04T02:37:29.455Z,8.00
2023-05-04T02:39:57.016Z,8.60
2023-05-04T02:42:24.405Z,10.50
2023-05-04T02:44:52.017Z,12.15
2023-05-04T02:47:20.792Z,12.80
2023-05-04T02:49:48.148Z,12.50
2023-05-04T02:52:15.855Z,12.20
2023-05-04T02:54:43.214Z,10.80
2023-05-04T02:57:11.035Z,12.13
2023-05-04T02:59:39.210Z,11.93
2023-05-04T03:02:07.625Z,10.35
2023-05-04T03:04:35.034Z,11.57
2023-05-04T03:07:02.759Z,11.15
2023-05-04T03:09:30.134Z,10.57
2023-05-04T03:11:57.558Z,10.07
2023-05-04T03:14:25.284Z,10.60
2023-05-04T03:16:52.897Z,10.35
2023-05-04T03:19:22.032Z,11.30
2023-05-04T03:21:51.994Z,10.85
2023-05-04T03:24:19.470Z,10.15
2023-05-04T03:26:47.755Z,11.63
2023-05-04T03:29:15.839Z,11.20
2023-05-04T03:31:43.399Z,13.27
2023-05-04T03:34:12.800Z,11.43
2023-05-04T03:36:40.824Z,11.32
2023-05-04T03:39:08.232Z,11.65
2023-05-04T03:41:36.732Z,12.37
2023-05-04T03:44:04.529Z,13.02
2023-05-04T03:46:31.976Z,13.77
2023-05-04T03:48:59.364Z,13.30
2023-05-04T03:51:27.514Z,15.77
2023-05-04T03:53:54.902Z,15.45
2023-05-04T03:56:23.354Z,15.38
2023-05-04T03:58:51.133Z,15.20
2023-05-04T04:01:19.985Z,15.80
2023-05-04T04:03:47.765Z,15.55
2023-05-04T04:06:15.901Z,16.75
2023-05-04T04:08:43.269Z,15.18
2023-05-04T04:11:10.925Z,15.05
2023-05-04T04:13:38.339Z,14.55
2023-05-04T04:16:06.734Z,16.35
2023-05-04T04:18:34.657Z,16.08
2023-05-04T04:21:02.055Z,16.58
2023-05-04T04:23:29.419Z,17.23
2023-05-04T04:25:57.157Z,16.92
2023-05-04T04:28:24.554Z,17.20
2023-05-04T04:30:51.993Z,17.62
2023-05-04T04:33:19.660Z,16.65
2023-05-04T04:35:47.458Z,14.35
2023-05-04T04:38:14.870Z,14.15
2023-05-04T04:40:42.815Z,14.30
2023-05-04T04:43:11.312Z,14.13
2023-05-04T04:45:41.120Z,13.90
2023-05-04T04:48:08.828Z,15.00
2023-05-04T04:50:39.169Z,13.68
2023-05-04T04:53:06.543Z,13.90
2023-05-04T04:55:34.889Z,13.30
2023-05-04T04:58:02.271Z,13.15
2023-05-04T05:00:30.027Z,11.50
2023-05-04T05:02:57.652Z,11.98
2023-05-04T05:05:25.109Z,11.43
2023-05-04T05:07:53.018Z,10.82
2023-05-04T05:10:23.951Z,9.98
2023-05-04T05:12:51.397Z,9.70
2023-05-04T05:15:18.927Z,8.45
2023-05-04T05:17:46.748Z,8.35
2023-05-04T05:20:15.268Z,7.40
2023-05-04T05:22:43.088Z,7.40
2023-05-04T05:25:10.914Z,7.40
2023-05-04T05:27:38.317Z,5.82
2023-05-04T05:30:06.741Z,5.53
2023-05-04T05:32:34.810Z,5.45
2023-05-04T05:35:02.693Z,5.60
2023-05-04T05:37:30.710Z,4.90
2023-05-04T05:39:59.752Z,5.00
2023-05-04T05:42:29.482Z,4.85
2023-05-04T05:44:58.171Z,4.97
2023-05-04T05:47:25.874Z,5.40
2023-05-04T05:49:53.409Z,4.05
2023-05-04T05:52:20.941Z,3.78
2023-05-04T05:54:48.749Z,3.80
2023-05-04T05:57:16.409Z,4.15
2023-05-04T05:59:44.758Z,3.30
2023-05-04T06:02:14.917Z,3.40
2023-05-04T06:04:43.336Z,3.58
2023-05-04T06:07:10.852Z,3.47
2023-05-04T06:09:38.251Z,3.53
2023-05-04T06:12:07.238Z,3.53
2023-05-04T06:14:34.611Z,3.05
2023-05-04T06:17:01.964Z,3.62
2023-05-04T06:19:31.588Z,2.95
2023-05-04T06:21:59.022Z,2.15
2023-05-04T06:24:27.138Z,2.67
2023-05-04T06:26:55.159Z,2.90
2023-05-04T06:29:22.733Z,3.08
2023-05-04T06:31:50.211Z,2.20
2023-05-04T06:34:18.012Z,2.58
2023-05-04T06:36:45.525Z,2.40
2023-05-04T06:39:13.030Z,2.10
2023-05-04T06:41:40.856Z,2.33
2023-05-04T06:44:08.620Z,2.47
2023-05-04T06:46:39.241Z,2.25
2023-05-04T06:49:06.878Z,2.60
2023-05-04T06:51:37.666Z,2.40
2023-05-04T06:54:05.212Z,2.80
2023-05-04T06:56:32.946Z,2.67
2023-05-04T06:59:00.493Z,2.90
2023-05-04T07:01:27.889Z,2.55
2023-05-04T07:03:58.366Z,3.20
2023-05-04T07:06:27.229Z,2.47
2023-05-04T07:08:54.648Z,2.60
2023-05-04T07:11:22.325Z,2.75
2023-05-04T07:13:49.953Z,2.80
2023-05-04T07:16:17.368Z,2.70
2023-05-04T07:37:46.431Z,2.72
2023-05-04T07:40:14.900Z,2.70
2023-05-04T07:42:42.277Z,2.42
2023-05-04T07:45:10.538Z,3.30
2023-05-04T07:47:38.273Z,3.12
2023-05-04T07:50:06.302Z,2.80
2023-05-04T07:52:33.857Z,2.53
2023-05-04T07:55:01.500Z,2.55
2023-05-04T07:57:28.848Z,2.78
2023-05-04T07:59:56.265Z,2.75
2023-05-04T08:02:24.114Z,3.17
2023-05-04T08:04:51.874Z,2.90
2023-05-04T08:07:20.608Z,2.90
2023-05-04T08:09:48.168Z,3.00
2023-05-04T08:12:15.864Z,3.20
2023-05-04T08:14:46.985Z,2.78
2023-05-04T08:17:14.350Z,3.28
2023-05-04T08:19:41.965Z,2.90
2023-05-04T08:22:09.492Z,3.10
2023-05-04T08:24:37.142Z,2.67
2023-05-04T08:27:08.677Z,2.58
2023-05-04T08:29:37.682Z,3.12
2023-05-04T08:32:06.174Z,2.70
2023-05-04T08:34:33.786Z,2.92
2023-05-04T08:37:02.377Z,3.33
2023-05-04T08:39:30.586Z,3.10
2023-05-04T08:41:58.074Z,3.30
2023-05-04T08:44:25.706Z,3.17
2023-05-04T08:46:53.822Z,3.15
2023-05-04T08:49:22.789Z,3.62
2023-05-04T08:51:50.752Z,2.97
2023-05-04T08:54:18.938Z,3.42
2023-05-04T08:56:47.198Z,2.83
2023-05-04T08:59:22.033Z,2.70
2023-05-04T09:01:52.099Z,2.70
2023-05-04T09:04:20.751Z,2.80
2023-05-04T09:06:48.368Z,3.20
2023-05-04T09:09:16.289Z,3.00
2023-05-04T09:11:43.759Z,3.10
2023-05-04T09:14:11.378Z,3.60
2023-05-04T09:16:39.163Z,3.17
2023-05-04T09:19:17.806Z,3.28
2023-05-04T09:21:47.108Z,3.37
2023-05-04T09:24:14.585Z,3.87
2023-05-04T09:26:41.965Z,3.67
2023-05-04T09:29:14.051Z,3.80
2023-05-04T09:31:52.209Z,3.80
2023-05-04T09:34:21.464Z,3.67
2023-05-04T09:37:02.612Z,3.28
2023-05-04T09:39:30.707Z,3.45
2023-05-04T09:41:58.137Z,3.47
2023-05-04T09:44:28.224Z,3.87
2023-05-04T09:46:59.837Z,4.00
2023-05-04T09:49:38.999Z,3.65
2023-05-04T09:52:07.079Z,3.90
2023-05-04T09:54:36.225Z,3.10
2023-05-04T09:57:14.614Z,3.17
2023-05-04T09:59:42.440Z,3.00
2023-05-04T10:02:21.997Z,3.80
2023-05-04T10:04:52.174Z,3.30
2023-05-04T10:07:20.771Z,4.22
2023-05-04T10:09:49.157Z,5.22
2023-05-04T10:12:16.970Z,6.03
2023-05-04T10:14:46.994Z,5.32
2023-05-04T10:17:20.711Z,5.43
2023-05-04T10:20:19.646Z,5.10
2023-05-04T10:22:52.687Z,5.10
2023-05-04T10:25:50.044Z,5.05
2023-05-04T10:28:29.484Z,5.93
2023-05-04T10:30:58.366Z,6.80
2023-05-04T10:33:26.753Z,5.90
2023-05-04T10:35:54.742Z,6.05
2023-05-04T10:38:33.217Z,5.50
2023-05-04T10:41:00.594Z,5.80
2023-05-04T10:43:32.603Z,4.68
2023-05-04T10:46:02.165Z,5.07
2023-05-04T10:48:35.114Z,5.50
2023-05-04T10:51:02.506Z,5.10
2023-05-04T10:53:33.971Z,5.40
2023-05-04T10:56:01.334Z,5.15
2023-05-04T10:58:29.126Z,5.15
2023-05-04T11:00:56.982Z,4.40
2023-05-04T11:03:25.094Z,4.85
2023-05-04T11:05:54.682Z,4.40
2023-05-04T11:08:24.665Z,4.97
2023-05-04T11:11:03.381Z,4.53
2023-05-04T11:13:33.846Z,4.47
2023-05-04T11:16:01.749Z,5.20
2023-05-04T11:18:34.415Z,4.47
2023-05-04T11:21:02.588Z,4.37
2023-05-04T11:23:30.760Z,4.70
2023-05-04T11:25:58.153Z,4.12
2023-05-04T11:28:36.174Z,4.07
2023-05-04T11:31:17.193Z,3.60
2023-05-04T11:33:46.366Z,3.97
2023-05-04T11:36:14.028Z,4.15
2023-05-04T11:38:41.769Z,4.45
2023-05-04T11:41:10.130Z,6.70
2023-05-04T11:43:38.162Z,6.80
2023-05-04T11:46:06.662Z,5.57
2023-05-04T11:48:35.563Z,6.87
2023-05-04T11:51:03.792Z,6.70
2023-05-04T11:53:38.706Z,6.18
2023-05-04T11:56:08.993Z,6.90
2023-05-04T11:58:37.013Z,6.37
2023-05-04T12:01:04.738Z,6.68
2023-05-04T12:03:53.183Z,6.70
2023-05-04T12:06:32.610Z,6.65
2023-05-04T12:09:05.969Z,6.28
2023-05-04T12:11:34.878Z,7.40
2023-05-04T12:14:05.125Z,7.20
2023-05-04T12:16:33.493Z,6.95
2023-05-04T12:19:12.726Z,6.87
2023-05-04T12:21:54.422Z,7.20
2023-05-04T12:24:23.551Z,7.20
2023-05-04T12:26:51.604Z,8.00
2023-05-04T12:29:19.188Z,7.30
2023-05-04T12:31:47.685Z,6.95
2023-05-04T12:34:15.580Z,7.25
2023-05-04T12:36:44.492Z,7.78
2023-05-04T12:39:11.979Z,6.90
2023-05-04T12:41:40.207Z,6.78
2023-05-04T12:44:09.185Z,6.45
2023-05-04T12:46:37.427Z,7.32
2023-05-04T12:49:06.336Z,6.53
2023-05-04T12:51:33.750Z,6.90
2023-05-04T12:54:01.203Z,6.22
2023-05-04T12:56:28.963Z,6.30
2023-05-04T12:58:56.523Z,7.45
2023-05-04T13:01:24.050Z,6.47
2023-05-04T13:03:51.956Z,5.97
2023-05-04T13:06:19.875Z,7.35
2023-05-04T13:08:47.395Z,6.62
2023-05-04T13:11:19.180Z,6.50
2023-05-04T13:13:46.590Z,6.53
2023-05-04T13:16:14.212Z,6.97
2023-05-04T13:18:43.374Z,7.07
2023-05-04T13:21:11.481Z,6.18
2023-05-04T13:23:38.860Z,7.53
2023-05-04T13:26:06.686Z,6.62
2023-05-04T13:28:34.065Z,6.53
2023-05-04T13:31:01.691Z,7.10
2023-05-04T13:33:30.766Z,7.28
2023-05-04T13:35:59.097Z,7.55
2023-05-04T13:38:27.027Z,6.82
2023-05-04T13:40:55.577Z,7.28
2023-05-04T13:43:23.128Z,7.80
2023-05-04T13:45:50.880Z,7.15
2023-05-04T13:48:18.776Z,7.12
2023-05-04T13:50:46.165Z,7.68
2023-05-04T13:53:13.652Z,7.37
2023-05-04T13:55:41.418Z,7.90
2023-05-04T13:58:08.881Z,7.25
2023-05-04T14:00:36.333Z,7.78
2023-05-04T14:03:05.469Z,7.45
2023-05-04T14:05:35.353Z,7.65
2023-05-04T14:08:03.016Z,7.40
2023-05-04T14:10:30.791Z,6.45
2023-05-04T14:12:59.069Z,6.72
2023-05-04T14:15:27.637Z,6.85
2023-05-04T14:17:55.428Z,7.25
2023-05-04T14:20:22.969Z,7.65
2023-05-04T14:22:50.383Z,6.97
2023-05-04T14:25:18.208Z,7.03
2023-05-04T14:27:46.317Z,5.55
2023-05-04T14:30:14.171Z,7.45
2023-05-04T14:32:42.115Z,6.72
2023-05-04T14:35:10.947Z,7.03
2023-05-04T14:37:39.647Z,5.93
2023-05-04T14:40:09.421Z,7.30
2023-05-04T14:42:37.498Z,6.32
2023-05-04T14:45:06.921Z,6.37
2023-05-04T14:47:35.129Z,6.00
2023-05-04T14:50:02.654Z,6.93
2023-05-04T14:52:31.573Z,5.93
2023-05-04T14:54:59.276Z,6.20
2023-05-04T14:57:27.635Z,6.28
2023-05-04T14:59:55.172Z,6.75
2023-05-04T15:02:23.063Z,5.97
2023-05-04T15:04:50.632Z,6.70
2023-05-04T15:07:20.831Z,6.43
2023-05-04T15:09:49.031Z,6.12
2023-05-04T15:12:17.590Z,5.40
2023-05-04T15:14:46.120Z,6.50
2023-05-04T15:17:14.865Z,6.62
2023-05-04T15:19:43.754Z,6.20
2023-05-04T15:22:11.306Z,6.37
2023-05-04T15:24:38.996Z,5.78
2023-05-04T15:27:06.596Z,5.87
2023-05-04T15:29:33.999Z,6.28
2023-05-04T15:32:01.718Z,5.75
2023-05-04T15:34:31.625Z,6.60
2023-05-04T15:36:59.002Z,6.22
2023-05-04T15:39:26.714Z,6.00
2023-05-04T15:41:54.132Z,5.93
2023-05-04T15:44:21.693Z,5.53
2023-05-04T15:46:49.876Z,5.40
2023-05-04T15:49:17.341Z,5.68
2023-05-04T15:51:45.033Z,5.72
2023-05-04T15:54:12.747Z,5.60
2023-05-04T15:56:40.243Z,5.70
2023-05-04T15:59:07.738Z,5.15
2023-05-04T16:01:35.610Z,6.20
2023-05-04T16:04:03.456Z,5.50
2023-05-04T16:06:31.315Z,5.62
2023-05-04T16:08:58.704Z,5.90
2023-05-04T16:11:26.352Z,5.45
2023-05-04T16:13:53.752Z,5.78
2023-05-04T16:16:21.368Z,5.35
2023-05-04T16:18:49.051Z,5.22
2023-05-04T16:21:16.675Z,5.50
2023-05-04T16:23:44.182Z,5.53
2023-05-04T16:26:12.090Z,4.78
2023-05-04T16:28:40.563Z,6.18
2023-05-04T16:31:10.308Z,6.53
2023-05-04T16:33:41.549Z,6.32
2023-05-04T16:36:09.429Z,6.57
2023-05-04T16:38:36.808Z,5.95
2023-05-04T16:41:04.575Z,5.85
2023-05-04T16:43:32.071Z,5.32
2023-05-04T16:45:59.612Z,5.35
2023-05-04T16:48:27.304Z,5.90
2023-05-04T16:50:54.744Z,5.53
2023-05-04T16:53:24.025Z,5.45
2023-05-04T16:55:52.361Z,6.00
2023-05-04T16:58:19.713Z,5.62
2023-05-04T17:00:47.112Z,5.60
2023-05-04T17:03:14.844Z,5.43
2023-05-04T17:05:42.261Z,6.30
2023-05-04T17:08:11.376Z,5.37
2023-05-04T17:10:40.021Z,6.07
2023-05-04T17:13:07.667Z,5.70
2023-05-04T17:15:35.126Z,5.65
2023-05-04T17:18:02.813Z,4.78
2023-05-04T17:20:32.036Z,4.53
2023-05-04T17:22:59.693Z,5.03
2023-05-04T17:25:27.480Z,4.97
2023-05-04T17:27:54.934Z,5.12
2023-05-04T17:30:22.486Z,4.90
2023-05-04T17:32:51.139Z,5.05
2023-05-04T17:35:25.041Z,5.00
2023-05-04T17:37:57.929Z,5.00
2023-05-04T17:40:29.581Z,5.15
2023-05-04T17:43:00.828Z,4.62
2023-05-04T17:45:28.389Z,4.90
2023-05-04T17:47:57.161Z,4.68
2023-05-04T17:50:25.616Z,5.22
2023-05-04T17:52:56.497Z,4.90
2023-05-04T17:55:27.737Z,4.72
2023-05-04T17:57:55.470Z,5.20
2023-05-04T18:00:23.688Z,4.82
2023-05-04T18:02:51.840Z,5.55
2023-05-04T18:05:19.874Z,5.32
2023-05-04T18:07:47.432Z,5.05
2023-05-04T18:10:16.105Z,5.07
2023-05-04T18:12:43.496Z,5.20
2023-05-04T18:15:10.972Z,5.53
2023-05-04T18:17:38.961Z,5.43
2023-05-04T18:20:11.371Z,6.22
2023-05-04T18:22:39.248Z,6.07
2023-05-04T18:25:07.348Z,5.65
2023-05-04T18:27:35.564Z,6.12
2023-05-04T18:30:04.454Z,5.97
2023-05-04T18:32:34.043Z,5.68
2023-05-04T18:35:02.472Z,6.53
2023-05-04T18:37:31.912Z,6.85
2023-05-04T18:40:00.082Z,6.93
2023-05-04T18:42:27.872Z,6.95
2023-05-04T18:44:56.282Z,6.82
2023-05-04T18:47:24.116Z,7.12
2023-05-04T18:49:52.901Z,6.82
2023-05-04T18:52:21.870Z,6.80
2023-05-04T18:54:49.736Z,7.80
2023-05-04T18:57:17.416Z,6.93
2023-05-04T18:59:45.272Z,7.12
2023-05-04T19:02:13.520Z,7.35
2023-05-04T19:04:41.517Z,7.57
2023-05-04T19:07:09.940Z,6.78
2023-05-04T19:09:37.895Z,6.30
2023-05-04T19:12:05.664Z,7.47
2023-05-04T19:14:33.627Z,7.47
2023-05-04T19:17:02.291Z,7.87
2023-05-04T19:19:30.651Z,7.12
2023-05-04T19:21:58.655Z,6.93
2023-05-04T19:24:26.405Z,7.32
2023-05-04T19:26:53.947Z,7.43
2023-05-04T19:29:21.351Z,7.20
2023-05-04T19:31:49.068Z,6.90
2023-05-04T19:34:17.701Z,7.20
2023-05-04T19:36:45.373Z,7.40
2023-05-04T19:39:13.364Z,7.95
2023-05-04T19:41:40.720Z,7.90
2023-05-04T19:44:10.060Z,8.27
2023-05-04T19:46:37.787Z,7.22
2023-05-04T19:49:05.196Z,7.70
2023-05-04T19:51:32.915Z,8.48
2023-05-04T19:54:00.950Z,8.07
2023-05-04T19:56:28.460Z,7.87
2023-05-04T19:58:55.850Z,7.68
2023-05-04T20:01:24.944Z,7.90
2023-05-04T20:03:52.893Z,8.25
2023-05-04T20:06:20.313Z,7.45
2023-05-04T20:08:47.797Z,8.80
2023-05-04T20:11:15.660Z,7.57
2023-05-04T20:13:43.044Z,7.40
2023-05-04T20:16:10.456Z,7.32
2023-05-04T20:18:38.143Z,7.70
2023-05-04T20:21:05.583Z,8.77
2023-05-04T20:23:33.153Z,7.82
2023-05-04T20:26:00.921Z,7.30
2023-05-04T20:28:28.297Z,6.82
2023-05-04T20:30:55.759Z,8.15
2023-05-04T20:33:23.554Z,7.93
2023-05-04T20:35:51.059Z,7.50
2023-05-04T20:38:18.441Z,7.40
2023-05-04T20:40:46.068Z,8.38
2023-05-04T20:43:13.429Z,7.50
2023-05-04T20:45:40.801Z,7.87
2023-05-04T20:48:09.067Z,7.82
2023-05-04T20:50:36.673Z,7.68
2023-05-04T20:53:04.350Z,9.13
2023-05-04T20:55:32.016Z,7.72
2023-05-04T20:57:59.386Z,8.02
2023-05-04T21:00:26.769Z,7.60
2023-05-04T21:02:55.757Z,7.32
2023-05-04T21:05:23.220Z,7.45
2023-05-04T21:07:52.240Z,7.20
2023-05-04T21:10:20.401Z,8.18
2023-05-04T21:12:48.023Z,8.05
2023-05-04T21:15:15.514Z,7.82
2023-05-04T21:17:43.242Z,7.47
2023-05-04T21:20:10.915Z,7.10
2023-05-04T21:22:38.434Z,6.90
2023-05-04T21:25:06.998Z,8.43
2023-05-04T21:27:34.371Z,8.00
2023-05-04T21:30:09.818Z,7.53
2023-05-04T21:32:38.253Z,7.65
2023-05-04T21:35:06.729Z,7.53
2023-05-04T21:37:34.148Z,7.53
2023-05-04T21:40:02.172Z,7.93
2023-05-04T21:42:30.002Z,7.22
2023-05-04T21:44:57.657Z,6.85
2023-05-04T21:47:26.310Z,7.90
2023-05-04T21:49:54.663Z,6.87
2023-05-04T21:52:22.644Z,8.18
2023-05-04T21:54:50.312Z,8.15
2023-05-04T21:57:17.808Z,7.62
2023-05-04T21:59:49.613Z,8.25
2023-05-04T22:02:17.605Z,8.98
2023-05-04T22:04:45.592Z,10.10
2023-05-04T22:07:13.018Z,9.55
2023-05-04T22:09:40.410Z,9.30
2023-05-04T22:12:08.217Z,8.85
2023-05-04T22:14:35.639Z,8.48
2023-05-04T22:17:03.177Z,8.30
2023-05-04T22:19:30.927Z,8.55
2023-05-04T22:21:58.360Z,7.82
2023-05-04T22:24:27.043Z,8.15
2023-05-04T22:26:54.760Z,7.10
2023-05-04T22:29:22.678Z,6.80
2023-05-04T22:31:50.056Z,7.47
2023-05-04T22:34:17.658Z,6.20
2023-05-04T22:36:45.012Z,6.15
2023-05-04T22:39:12.450Z,5.85
2023-05-04T22:41:40.107Z,5.53
2023-05-04T22:44:07.508Z,5.37
2023-05-04T22:46:34.994Z,4.65
2023-05-04T22:49:02.719Z,4.97
2023-05-04T22:51:30.262Z,4.78
2023-05-04T22:53:57.597Z,4.55
2023-05-04T22:56:25.923Z,4.28
2023-05-04T22:58:53.270Z,4.60
2023-05-04T23:01:20.736Z,3.83
2023-05-04T23:03:49.061Z,3.92
2023-05-04T23:06:16.500Z,3.42
2023-05-04T23:08:45.373Z,3.92
2023-05-04T23:11:12.994Z,3.55
2023-05-04T23:13:40.321Z,3.65
2023-05-04T23:16:07.964Z,3.47
2023-05-04T23:18:35.702Z,3.30
2023-05-04T23:21:03.242Z,3.37
2023-05-04T23:23:31.586Z,3.62
2023-05-04T23:25:59.397Z,3.72
2023-05-04T23:28:26.735Z,3.97
2023-05-04T23:30:55.763Z,3.42
2023-05-04T23:33:23.563Z,3.87
2023-05-04T23:35:54.328Z,3.15
2023-05-04T23:38:22.879Z,3.45
2023-05-04T23:40:51.646Z,3.28
2023-05-04T23:43:19.012Z,3.75
2023-05-04T23:45:46.414Z,2.85
2023-05-04T23:48:14.075Z,3.70
2023-05-04T23:50:41.540Z,3.67
2023-05-04T23:53:08.890Z,3.55
2023-05-04T23:55:36.468Z,4.05
2023-05-04T23:58:03.808Z,4.00
